createdAt,value
2016-06-11T00:00:09.933Z,1005.31
2016-06-11T00:01:09.982Z,1005.33
2016-06-11T00:02:10.017Z,1005.29
2016-06-11T00:03:10.051Z,1005.32
2016-06-11T00:04:10.085Z,1005.32
2016-06-11T00:05:10.119Z,1005.28
2016-06-11T00:06:10.154Z,1005.31
2016-06-11T00:07:10.189Z,1005.31
2016-06-11T00:08:10.222Z,1005.27
2016-06-11T00:09:10.273Z,1005.28
2016-06-11T00:10:10.306Z,1005.29
2016-06-11T00:11:10.341Z,1005.28
2016-06-11T00:12:10.376Z,1005.27
2016-06-11T00:13:10.410Z,1005.31
2016-06-11T00:14:10.444Z,1005.31
2016-06-11T00:15:10.494Z,1005.28
2016-06-11T00:16:10.527Z,1005.31
2016-06-11T00:17:10.547Z,1005.31
2016-06-11T00:18:10.597Z,1005.3
2016-06-11T00:19:10.631Z,1005.3
2016-06-11T00:20:10.665Z,1005.37
2016-06-11T00:21:10.700Z,1005.37
2016-06-11T00:22:10.735Z,1005.32
2016-06-11T00:23:10.768Z,1005.3
2016-06-11T00:24:10.802Z,1005.31
2016-06-11T00:25:10.838Z,1005.32
2016-06-11T00:26:10.888Z,1005.32
2016-06-11T00:27:10.922Z,1005.31
2016-06-11T00:28:10.956Z,1005.29
2016-06-11T00:29:11.756Z,1005.31
2016-06-11T00:30:11.025Z,1005.32
2016-06-11T00:31:11.059Z,1005.31
2016-06-11T00:32:11.093Z,1005.28
2016-06-11T00:33:11.127Z,1005.27
2016-06-11T00:34:11.162Z,1005.27
2016-06-11T00:35:11.196Z,1005.28
2016-06-11T00:36:11.247Z,1005.29
2016-06-11T00:37:11.280Z,1005.26
2016-06-11T00:38:11.315Z,1005.29
2016-06-11T00:39:11.348Z,1005.23
2016-06-11T00:40:11.384Z,1005.25
2016-06-11T00:41:11.418Z,1005.22
2016-06-11T00:42:11.452Z,1005.23
2016-06-11T00:43:11.486Z,1005.25
2016-06-11T00:44:11.943Z,1005.22
2016-06-11T00:45:11.555Z,1005.24
2016-06-11T00:46:11.605Z,1005.22
2016-06-11T00:47:11.640Z,1005.18
2016-06-11T00:48:11.673Z,1005.19
2016-06-11T00:49:11.708Z,1005.17
2016-06-11T00:50:11.743Z,1005.17
2016-06-11T00:51:11.777Z,1005.15
2016-06-11T00:52:11.810Z,1005.17
2016-06-11T00:53:11.846Z,1005.17
2016-06-11T00:54:11.895Z,1005.15
2016-06-11T00:55:11.930Z,1005.19
2016-06-11T00:56:11.964Z,1005.19
2016-06-11T00:57:11.997Z,1005.17
2016-06-11T00:58:12.032Z,1005.16
2016-06-11T00:59:12.067Z,1005.17
2016-06-11T01:00:12.101Z,1005.17
2016-06-11T01:01:12.135Z,1005.15
2016-06-11T01:02:12.169Z,1005.16
2016-06-11T01:03:12.204Z,1005.14
2016-06-11T01:04:12.239Z,1005.14
2016-06-11T01:05:12.272Z,1005.14
2016-06-11T01:06:12.323Z,1005.12
2016-06-11T01:07:12.356Z,1005.17
2016-06-11T01:08:12.392Z,1005.15
2016-06-11T01:09:12.426Z,1005.15
2016-06-11T01:10:12.460Z,1005.15
2016-06-11T01:11:12.494Z,1005.17
2016-06-11T01:12:12.529Z,1005.19
2016-06-11T01:13:12.563Z,1005.16
2016-06-11T01:14:13.394Z,1005.21
2016-06-11T01:15:12.631Z,1005.16
2016-06-11T01:16:12.666Z,1005.2
2016-06-11T01:17:12.701Z,1005.2
2016-06-11T01:18:12.735Z,1005.21
2016-06-11T01:19:12.768Z,1005.19
2016-06-11T01:20:12.819Z,1005.17
2016-06-11T01:21:12.853Z,1005.2
2016-06-11T01:22:12.887Z,1005.21
2016-06-11T01:23:12.922Z,1005.18
2016-06-11T01:24:12.955Z,1005.21
2016-06-11T01:25:12.990Z,1005.2
2016-06-11T01:26:13.025Z,1005.2
2016-06-11T01:27:13.059Z,1005.17
2016-06-11T01:28:13.093Z,1005.16
2016-06-11T01:29:13.127Z,1005.14
2016-06-11T01:30:13.163Z,1005.14
2016-06-11T01:31:13.196Z,1005.16
2016-06-11T01:32:13.231Z,1005.13
2016-06-11T01:33:13.280Z,1005.13
2016-06-11T01:34:13.314Z,1005.13
2016-06-11T01:35:13.350Z,1005.1
2016-06-11T01:36:13.384Z,1005.09
2016-06-11T01:37:13.418Z,1005.09
2016-06-11T01:38:13.452Z,1005.12
2016-06-11T01:39:13.487Z,1005.12
2016-06-11T01:40:13.521Z,1005.11
2016-06-11T01:41:13.556Z,1005.06
2016-06-11T01:42:13.605Z,1005.09
2016-06-11T01:43:13.624Z,1005.1
2016-06-11T01:44:13.659Z,1005.08
2016-06-11T01:45:13.708Z,1005.07
2016-06-11T01:46:13.743Z,1005.06
2016-06-11T01:47:13.776Z,1005.06
2016-06-11T01:48:13.810Z,1005.1
2016-06-11T01:49:13.846Z,1005.07
2016-06-11T01:50:13.880Z,1005.09
2016-06-11T01:51:13.913Z,1005.09
2016-06-11T01:52:13.948Z,1005.07
2016-06-11T01:53:13.983Z,1005.07
2016-06-11T01:54:14.017Z,1005.05
2016-06-11T01:55:14.051Z,1005.07
2016-06-11T01:56:14.085Z,1005.05
2016-06-11T01:57:14.120Z,1005.04
2016-06-11T01:58:14.170Z,1005.01
2016-06-11T01:59:14.204Z,1004.98
2016-06-11T02:00:14.239Z,1005.01
2016-06-11T02:01:14.272Z,1004.99
2016-06-11T02:02:14.308Z,1004.96
2016-06-11T02:03:14.342Z,1004.99
2016-06-11T02:04:14.376Z,1004.98
2016-06-11T02:05:14.410Z,1004.98
2016-06-11T02:06:14.445Z,1004.98
2016-06-11T02:07:14.479Z,1004.96
2016-06-11T02:08:14.513Z,1004.94
2016-06-11T02:09:14.548Z,1004.91
2016-06-11T02:10:14.583Z,1004.85
2016-06-11T02:11:14.616Z,1004.88
2016-06-11T02:12:14.651Z,1004.83
2016-06-11T02:13:14.701Z,1004.85
2016-06-11T02:14:14.735Z,1004.87
2016-06-11T02:15:14.768Z,1004.87
2016-06-11T02:16:14.804Z,1004.86
2016-06-11T02:17:14.838Z,1004.93
2016-06-11T02:18:14.872Z,1004.89
2016-06-11T02:19:14.906Z,1004.91
2016-06-11T02:20:14.941Z,1004.88
2016-06-11T02:21:14.975Z,1004.91
2016-06-11T02:22:15.009Z,1004.92
2016-06-11T02:23:15.044Z,1004.9
2016-06-11T02:24:15.093Z,1004.92
2016-06-11T02:25:15.128Z,1004.94
2016-06-11T02:26:15.163Z,1004.92
2016-06-11T02:27:15.197Z,1004.9
2016-06-11T02:28:15.230Z,1004.9
2016-06-11T02:29:15.266Z,1004.9
2016-06-11T02:30:15.299Z,1004.94
2016-06-11T02:31:15.334Z,1004.91
2016-06-11T02:32:15.368Z,1004.87
2016-06-11T02:33:15.403Z,1004.91
2016-06-11T02:34:15.437Z,1004.91
2016-06-11T02:35:15.471Z,1004.9
2016-06-11T02:36:15.521Z,1004.9
2016-06-11T02:37:15.540Z,1004.93
2016-06-11T02:38:15.590Z,1004.9
2016-06-11T02:39:15.624Z,1004.93
2016-06-11T02:40:15.642Z,1004.89
2016-06-11T02:41:15.692Z,1004.86
2016-06-11T02:42:15.727Z,1004.86
2016-06-11T02:43:15.762Z,1004.85
2016-06-11T02:44:15.796Z,1004.85
2016-06-11T02:45:15.907Z,1004.87
2016-06-11T02:46:15.864Z,1004.84
2016-06-11T02:47:15.899Z,1004.81
2016-06-11T02:48:15.933Z,1004.83
2016-06-11T02:49:15.967Z,1004.84
2016-06-11T02:50:16.001Z,1004.81
2016-06-11T02:51:16.036Z,1004.78
2016-06-11T02:52:16.071Z,1004.82
2016-06-11T02:53:16.104Z,1004.81
2016-06-11T02:54:16.138Z,1004.79
2016-06-11T02:55:16.174Z,1004.82
2016-06-11T02:56:16.208Z,1004.82
2016-06-11T02:57:16.241Z,1004.81
2016-06-11T02:58:16.276Z,1004.83
2016-06-11T02:59:16.326Z,1004.83
2016-06-11T03:00:16.361Z,1004.85
2016-06-11T03:01:16.395Z,1004.83
2016-06-11T03:02:16.430Z,1004.88
2016-06-11T03:03:16.463Z,1004.87
2016-06-11T03:04:16.498Z,1004.92
2016-06-11T03:05:16.533Z,1004.86
2016-06-11T03:06:16.566Z,1004.86
2016-06-11T03:07:16.600Z,1004.83
2016-06-11T03:08:16.636Z,1004.83
2016-06-11T03:09:16.670Z,1004.86
2016-06-11T03:10:16.704Z,1004.9
2016-06-11T03:11:16.737Z,1004.89
2016-06-11T03:12:16.787Z,1004.94
2016-06-11T03:13:16.807Z,1004.9
2016-06-11T03:14:16.841Z,1004.91
2016-06-11T03:15:16.891Z,1004.88
2016-06-11T03:16:16.925Z,1004.89
2016-06-11T03:17:16.959Z,1004.84
2016-06-11T03:18:16.994Z,1004.89
2016-06-11T03:19:17.029Z,1004.85
2016-06-11T03:20:17.062Z,1004.87
2016-06-11T03:21:17.096Z,1004.89
2016-06-11T03:22:17.132Z,1004.84
2016-06-11T03:23:17.166Z,1004.89
2016-06-11T03:24:17.199Z,1004.88
2016-06-11T03:25:17.234Z,1004.88
2016-06-11T03:26:17.269Z,1004.83
2016-06-11T03:27:17.303Z,1004.83
2016-06-11T03:28:17.353Z,1004.78
2016-06-11T03:29:17.387Z,1004.8
2016-06-11T03:30:17.421Z,1004.79
2016-06-11T03:31:17.456Z,1004.81
2016-06-11T03:32:17.490Z,1004.78
2016-06-11T03:33:17.525Z,1004.78
2016-06-11T03:34:17.559Z,1004.81
2016-06-11T03:35:17.593Z,1004.76
2016-06-11T03:36:17.628Z,1004.78
2016-06-11T03:37:17.662Z,1004.74
2016-06-11T03:38:17.695Z,1004.76
2016-06-11T03:39:17.731Z,1004.77
2016-06-11T03:40:17.765Z,1004.73
2016-06-11T03:41:17.799Z,1004.74
2016-06-11T03:42:17.833Z,1004.74
2016-06-11T03:43:17.868Z,1004.72
2016-06-11T03:44:17.902Z,1004.7
2016-06-11T03:45:17.936Z,1004.71
2016-06-11T03:46:17.970Z,1004.72
2016-06-11T03:47:18.006Z,1004.7
2016-06-11T03:48:18.040Z,1004.75
2016-06-11T03:49:18.074Z,1004.72
2016-06-11T03:50:18.107Z,1004.76
2016-06-11T03:51:18.143Z,1004.76
2016-06-11T03:52:18.177Z,1004.76
2016-06-11T03:53:18.211Z,1004.78
2016-06-11T03:54:18.245Z,1004.77
2016-06-11T03:55:18.280Z,1004.78
2016-06-11T03:56:18.314Z,1004.81
2016-06-11T03:57:18.364Z,1004.86
2016-06-11T03:58:18.383Z,1004.84
2016-06-11T03:59:18.432Z,1004.85
2016-06-11T04:00:18.466Z,1004.87
2016-06-11T04:01:18.501Z,1004.87
2016-06-11T04:02:18.535Z,1004.85
2016-06-11T04:03:18.569Z,1004.91
2016-06-11T04:04:18.603Z,1004.9
2016-06-11T04:05:18.639Z,1004.92
2016-06-11T04:06:18.673Z,1004.88
2016-06-11T04:07:18.706Z,1004.92
2016-06-11T04:08:18.741Z,1004.92
2016-06-11T04:09:18.776Z,1004.93
2016-06-11T04:10:18.810Z,1004.92
2016-06-11T04:11:18.844Z,1004.93
2016-06-11T04:12:18.878Z,1004.94
2016-06-11T04:13:18.913Z,1004.94
2016-06-11T04:14:18.948Z,1004.94
2016-06-11T04:15:18.997Z,1004.93
2016-06-11T04:16:19.015Z,1004.89
2016-06-11T04:17:19.051Z,1004.9
2016-06-11T04:18:19.084Z,1004.95
2016-06-11T04:19:19.149Z,1004.91
2016-06-11T04:20:19.169Z,1004.9
2016-06-11T04:21:19.203Z,1004.93
2016-06-11T04:22:19.238Z,1004.94
2016-06-11T04:23:19.272Z,1004.94
2016-06-11T04:24:19.307Z,1004.95
2016-06-11T04:25:19.340Z,1004.94
2016-06-11T04:26:19.375Z,1004.95
2016-06-11T04:27:19.409Z,1004.98
2016-06-11T04:28:19.444Z,1004.95
2016-06-11T04:29:19.477Z,1004.94
2016-06-11T04:30:19.513Z,1004.92
2016-06-11T04:31:19.547Z,1004.95
2016-06-11T04:32:19.581Z,1004.96
2016-06-11T04:33:19.615Z,1004.9
2016-06-11T04:34:19.650Z,1004.89
2016-06-11T04:35:19.684Z,1004.9
2016-06-11T04:36:19.718Z,1004.92
2016-06-11T04:37:19.752Z,1004.89
2016-06-11T04:38:19.787Z,1004.88
2016-06-11T04:39:19.836Z,1004.89
2016-06-11T04:40:19.871Z,1004.9
2016-06-11T04:41:19.906Z,1004.9
2016-06-11T04:42:19.939Z,1004.93
2016-06-11T04:43:19.973Z,1004.91
2016-06-11T04:44:20.009Z,1004.94
2016-06-11T04:45:20.042Z,1004.95
2016-06-11T04:46:20.076Z,1004.93
2016-06-11T04:47:20.111Z,1004.91
2016-06-11T04:48:20.146Z,1004.95
2016-06-11T04:49:20.180Z,1004.95
2016-06-11T04:50:20.214Z,1004.97
2016-06-11T04:51:20.248Z,1004.98
2016-06-11T04:52:20.283Z,1004.97
2016-06-11T04:53:20.318Z,1004.98
2016-06-11T04:54:20.351Z,1004.99
2016-06-11T04:55:20.401Z,1004.94
2016-06-11T04:56:20.435Z,1004.98
2016-06-11T04:57:20.454Z,1004.95
2016-06-11T04:58:20.505Z,1004.98
2016-06-11T04:59:20.539Z,1004.99
2016-06-11T05:00:20.775Z,1005.02
2016-06-11T05:01:20.608Z,1005.05
2016-06-11T05:02:20.642Z,1005.02
2016-06-11T05:03:20.676Z,1005.05
2016-06-11T05:04:20.710Z,1005.04
2016-06-11T05:05:20.745Z,1005.06
2016-06-11T05:06:20.779Z,1005.06
2016-06-11T05:07:20.814Z,1005.09
2016-06-11T05:08:20.863Z,1005.08
2016-06-11T05:09:20.883Z,1005.07
2016-06-11T05:10:20.931Z,1005.08
2016-06-11T05:11:20.967Z,1005.08
2016-06-11T05:12:21.001Z,1005.06
2016-06-11T05:13:21.034Z,1005.08
2016-06-11T05:14:21.069Z,1005.08
2016-06-11T05:15:21.166Z,1005.08
2016-06-11T05:16:21.138Z,1005.1
2016-06-11T05:17:21.188Z,1005.07
2016-06-11T05:18:21.222Z,1005.1
2016-06-11T05:19:21.242Z,1005.11
2016-06-11T05:20:21.276Z,1005.1
2016-06-11T05:21:21.309Z,1005.09
2016-06-11T05:22:21.343Z,1005.05
2016-06-11T05:23:21.379Z,1005.09
2016-06-11T05:24:21.428Z,1005.08
2016-06-11T05:25:21.463Z,1005.1
2016-06-11T05:26:21.497Z,1005.11
2016-06-11T05:27:21.530Z,1005.1
2016-06-11T05:28:21.566Z,1005.1
2016-06-11T05:29:21.600Z,1005.17
2016-06-11T05:30:21.634Z,1005.12
2016-06-11T05:31:21.668Z,1005.15
2016-06-11T05:32:21.718Z,1005.13
2016-06-11T05:33:21.752Z,1005.15
2016-06-11T05:34:21.771Z,1005.16
2016-06-11T05:35:21.822Z,1005.15
2016-06-11T05:36:21.855Z,1005.2
2016-06-11T05:37:21.889Z,1005.2
2016-06-11T05:38:21.925Z,1005.18
2016-06-11T05:39:21.958Z,1005.16
2016-06-11T05:40:21.992Z,1005.19
2016-06-11T05:41:22.027Z,1005.18
2016-06-11T05:42:22.077Z,1005.19
2016-06-11T05:43:22.096Z,1005.2
2016-06-11T05:44:22.146Z,1005.19
2016-06-11T05:45:22.181Z,1005.22
2016-06-11T05:46:22.214Z,1005.2
2016-06-11T05:47:22.249Z,1005.21
2016-06-11T05:48:22.283Z,1005.23
2016-06-11T05:49:22.318Z,1005.26
2016-06-11T05:50:22.351Z,1005.26
2016-06-11T05:51:22.386Z,1005.3
2016-06-11T05:52:22.421Z,1005.28
2016-06-11T05:53:22.471Z,1005.26
2016-06-11T05:54:22.505Z,1005.29
2016-06-11T05:55:22.538Z,1005.27
2016-06-11T05:56:22.607Z,1005.28
2016-06-11T05:57:22.684Z,1005.31
2016-06-11T05:58:22.758Z,1005.26
2016-06-11T05:59:22.832Z,1005.26
2016-06-11T06:00:23.002Z,1005.28
2016-06-11T06:01:22.961Z,1005.28
2016-06-11T06:02:23.026Z,1005.25
2016-06-11T06:03:23.074Z,1005.28
2016-06-11T06:04:23.123Z,1005.29
2016-06-11T06:05:23.172Z,1005.28
2016-06-11T06:06:23.214Z,1005.26
2016-06-11T06:07:23.253Z,1005.3
2016-06-11T06:08:23.309Z,1005.27
2016-06-11T06:09:23.332Z,1005.27
2016-06-11T06:10:23.388Z,1005.31
2016-06-11T06:11:23.424Z,1005.28
2016-06-11T06:12:23.461Z,1005.31
2016-06-11T06:13:23.497Z,1005.3
2016-06-11T06:14:23.533Z,1005.31
2016-06-11T06:15:24.273Z,1005.3
2016-06-11T06:16:23.605Z,1005.3
2016-06-11T06:17:23.640Z,1005.31
2016-06-11T06:18:23.674Z,1005.35
2016-06-11T06:19:23.709Z,1005.36
2016-06-11T06:20:23.745Z,1005.33
2016-06-11T06:21:23.780Z,1005.36
2016-06-11T06:22:23.814Z,1005.34
2016-06-11T06:23:23.864Z,1005.37
2016-06-11T06:24:23.897Z,1005.34
2016-06-11T06:25:23.933Z,1005.35
2016-06-11T06:26:23.967Z,1005.32
2016-06-11T06:27:24.001Z,1005.35
2016-06-11T06:28:24.035Z,1005.35
2016-06-11T06:29:24.070Z,1005.4
2016-06-11T06:30:24.119Z,1005.4
2016-06-11T06:31:24.154Z,1005.4
2016-06-11T06:32:24.189Z,1005.39
2016-06-11T06:33:24.222Z,1005.43
2016-06-11T06:34:24.256Z,1005.44
2016-06-11T06:35:24.292Z,1005.46
2016-06-11T06:36:24.326Z,1005.44
2016-06-11T06:37:24.375Z,1005.49
2016-06-11T06:38:24.394Z,1005.48
2016-06-11T06:39:24.429Z,1005.5
2016-06-11T06:40:24.479Z,1005.51
2016-06-11T06:41:24.513Z,1005.52
2016-06-11T06:42:24.548Z,1005.51
2016-06-11T06:43:24.581Z,1005.59
2016-06-11T06:44:24.616Z,1005.51
2016-06-11T06:45:24.650Z,1005.5
2016-06-11T06:46:24.685Z,1005.54
2016-06-11T06:47:24.735Z,1005.51
2016-06-11T06:48:24.768Z,1005.55
2016-06-11T06:49:24.802Z,1005.56
2016-06-11T06:50:24.838Z,1005.52
2016-06-11T06:51:24.872Z,1005.53
2016-06-11T06:52:24.905Z,1005.52
2016-06-11T06:53:24.940Z,1005.55
2016-06-11T06:54:24.990Z,1005.54
2016-06-11T06:55:25.025Z,1005.59
2016-06-11T06:56:25.059Z,1005.58
2016-06-11T06:57:25.094Z,1005.59
2016-06-11T06:58:25.127Z,1005.59
2016-06-11T06:59:25.162Z,1005.56
2016-06-11T07:00:25.212Z,1005.58
2016-06-11T07:01:25.246Z,1005.61
2016-06-11T07:02:25.281Z,1005.59
2016-06-11T07:03:25.314Z,1005.6
2016-06-11T07:04:25.349Z,1005.58
2016-06-11T07:05:25.384Z,1005.58
2016-06-11T07:06:25.418Z,1005.65
2016-06-11T07:07:25.452Z,1005.62
2016-06-11T07:08:25.502Z,1005.57
2016-06-11T07:09:25.536Z,1005.61
2016-06-11T07:10:25.571Z,1005.62
2016-06-11T07:11:25.605Z,1005.63
2016-06-11T07:12:25.639Z,1005.61
2016-06-11T07:13:25.673Z,1005.62
2016-06-11T07:14:25.724Z,1005.61
2016-06-11T07:15:25.757Z,1005.61
2016-06-11T07:16:25.776Z,1005.62
2016-06-11T07:17:25.827Z,1005.61
2016-06-11T07:18:25.861Z,1005.6
2016-06-11T07:19:25.894Z,1005.66
2016-06-11T07:20:25.930Z,1005.65
2016-06-11T07:21:25.964Z,1005.6
2016-06-11T07:22:25.998Z,1005.59
2016-06-11T07:23:26.032Z,1005.59
2016-06-11T07:24:26.082Z,1005.58
2016-06-11T07:25:26.117Z,1005.61
2016-06-11T07:26:26.151Z,1005.57
2016-06-11T07:27:26.185Z,1005.58
2016-06-11T07:28:26.220Z,1005.58
2016-06-11T07:29:26.270Z,1005.54
2016-06-11T07:30:26.350Z,1005.59
2016-06-11T07:31:26.339Z,1005.61
2016-06-11T07:32:26.372Z,1005.64
2016-06-11T07:33:26.407Z,1005.61
2016-06-11T07:34:26.441Z,1005.62
2016-06-11T07:35:26.491Z,1005.58
2016-06-11T07:36:26.526Z,1005.62
2016-06-11T07:37:26.560Z,1005.63
2016-06-11T07:38:26.594Z,1005.62
2016-06-11T07:39:26.629Z,1005.57
2016-06-11T07:40:26.663Z,1005.57
2016-06-11T07:41:26.697Z,1005.58
2016-06-11T07:42:26.748Z,1005.57
2016-06-11T07:43:26.782Z,1005.62
2016-06-11T07:44:26.815Z,1005.58
2016-06-11T07:45:26.975Z,1005.55
2016-06-11T07:46:26.885Z,1005.57
2016-06-11T07:47:26.935Z,1005.56
2016-06-11T07:48:26.969Z,1005.52
2016-06-11T07:49:27.019Z,1005.52
2016-06-11T07:50:27.053Z,1005.57
2016-06-11T07:51:27.072Z,1005.54
2016-06-11T07:52:27.121Z,1005.55
2016-06-11T07:53:27.157Z,1005.54
2016-06-11T07:54:27.191Z,1005.55
2016-06-11T07:55:27.224Z,1005.55
2016-06-11T07:56:27.258Z,1005.53
2016-06-11T07:57:27.309Z,1005.56
2016-06-11T07:58:27.344Z,1005.55
2016-06-11T07:59:27.378Z,1005.51
2016-06-11T08:00:27.615Z,1005.54
2016-06-11T08:01:27.462Z,1005.57
2016-06-11T08:02:27.496Z,1005.59
2016-06-11T08:03:27.530Z,1005.56
2016-06-11T08:04:27.565Z,1005.53
2016-06-11T08:05:27.600Z,1005.52
2016-06-11T08:06:27.633Z,1005.52
2016-06-11T08:07:27.684Z,1005.48
2016-06-11T08:08:27.717Z,1005.47
2016-06-11T08:09:27.752Z,1005.51
2016-06-11T08:10:27.786Z,1005.5
2016-06-11T08:11:27.821Z,1005.53
2016-06-11T08:12:27.871Z,1005.54
2016-06-11T08:13:27.904Z,1005.57
2016-06-11T08:14:27.939Z,1005.55
2016-06-11T08:15:28.317Z,1005.55
2016-06-11T08:16:28.024Z,1005.54
2016-06-11T08:17:28.058Z,1005.59
2016-06-11T08:18:28.093Z,1005.59
2016-06-11T08:19:28.158Z,1005.55
2016-06-11T08:20:28.161Z,1005.58
2016-06-11T08:21:28.210Z,1005.56
2016-06-11T08:22:28.246Z,1005.54
2016-06-11T08:23:28.280Z,1005.57
2016-06-11T08:24:28.330Z,1005.58
2016-06-11T08:25:28.364Z,1005.54
2016-06-11T08:26:28.398Z,1005.56
2016-06-11T08:27:28.433Z,1005.58
2016-06-11T08:28:28.482Z,1005.57
2016-06-11T08:29:28.517Z,1005.57
2016-06-11T08:30:29.442Z,1005.63
2016-06-11T08:31:28.585Z,1005.58
2016-06-11T08:32:28.619Z,1005.56
2016-06-11T08:33:28.669Z,1005.54
2016-06-11T08:34:28.704Z,1005.6
2016-06-11T08:35:28.739Z,1005.58
2016-06-11T08:36:28.773Z,1005.56
2016-06-11T08:37:28.806Z,1005.62
2016-06-11T08:38:28.856Z,1005.62
2016-06-11T08:39:28.891Z,1005.61
2016-06-11T08:40:28.926Z,1005.63
2016-06-11T08:41:28.960Z,1005.62
2016-06-11T08:42:29.010Z,1005.64
2016-06-11T08:43:29.044Z,1005.63
2016-06-11T08:44:29.078Z,1005.64
2016-06-11T08:45:29.128Z,1005.63
2016-06-11T08:46:29.162Z,1005.62
2016-06-11T08:47:29.197Z,1005.62
2016-06-11T08:48:29.231Z,1005.65
2016-06-11T08:49:29.265Z,1005.61
2016-06-11T08:50:29.299Z,1005.63
2016-06-11T08:51:29.350Z,1005.64
2016-06-11T08:52:29.385Z,1005.66
2016-06-11T08:53:29.434Z,1005.64
2016-06-11T08:54:29.453Z,1005.66
2016-06-11T08:55:29.503Z,1005.65
2016-06-11T08:56:29.537Z,1005.62
2016-06-11T08:57:29.571Z,1005.62
2016-06-11T08:58:29.606Z,1005.62
2016-06-11T08:59:29.641Z,1005.65
2016-06-11T09:00:29.690Z,1005.64
2016-06-11T09:01:29.772Z,1005.61
2016-06-11T09:02:29.758Z,1005.55
2016-06-11T09:03:29.808Z,1005.61
2016-06-11T09:04:29.842Z,1005.59
2016-06-11T09:05:29.878Z,1005.62
2016-06-11T09:06:29.928Z,1005.65
2016-06-11T09:07:29.945Z,1005.61
2016-06-11T09:08:29.996Z,1005.63
2016-06-11T09:09:30.030Z,1005.59
2016-06-11T09:10:30.080Z,1005.62
2016-06-11T09:11:30.099Z,1005.63
2016-06-11T09:12:30.149Z,1005.58
2016-06-11T09:13:30.184Z,1005.6
2016-06-11T09:14:30.217Z,1005.6
2016-06-11T09:15:30.251Z,1005.64
2016-06-11T09:16:30.301Z,1005.62
2016-06-11T09:17:30.336Z,1005.63
2016-06-11T09:18:30.371Z,1005.64
2016-06-11T09:19:30.405Z,1005.61
2016-06-11T09:20:30.455Z,1005.61
2016-06-11T09:21:30.488Z,1005.62
2016-06-11T09:22:30.523Z,1005.59
2016-06-11T09:23:30.558Z,1005.54
2016-06-11T09:24:30.608Z,1005.59
2016-06-11T09:25:30.642Z,1005.56
2016-06-11T09:26:30.677Z,1005.56
2016-06-11T09:27:30.710Z,1005.55
2016-06-11T09:28:30.761Z,1005.58
2016-06-11T09:29:30.794Z,1005.57
2016-06-11T09:30:30.830Z,1005.57
2016-06-11T09:31:30.864Z,1005.58
2016-06-11T09:32:30.914Z,1005.56
2016-06-11T09:33:30.948Z,1005.57
2016-06-11T09:34:30.998Z,1005.57
2016-06-11T09:35:31.017Z,1005.6
2016-06-11T09:36:31.066Z,1005.59
2016-06-11T09:37:31.116Z,1005.56
2016-06-11T09:38:31.135Z,1005.55
2016-06-11T09:39:31.185Z,1005.57
2016-06-11T09:40:31.220Z,1005.55
2016-06-11T09:41:31.253Z,1005.56
2016-06-11T09:42:31.288Z,1005.52
2016-06-11T09:43:31.323Z,1005.51
2016-06-11T09:44:31.373Z,1005.5
2016-06-11T09:45:31.407Z,1005.5
2016-06-11T09:46:31.441Z,1005.53
2016-06-11T09:47:31.491Z,1005.48
2016-06-11T09:48:31.524Z,1005.52
2016-06-11T09:49:31.560Z,1005.52
2016-06-11T09:50:31.594Z,1005.5
2016-06-11T09:51:31.628Z,1005.49
2016-06-11T09:52:31.678Z,1005.49
2016-06-11T09:53:31.712Z,1005.46
2016-06-11T09:54:31.746Z,1005.48
2016-06-11T09:55:31.781Z,1005.46
2016-06-11T09:56:31.831Z,1005.48
2016-06-11T09:57:31.866Z,1005.51
2016-06-11T09:58:31.900Z,1005.52
2016-06-11T09:59:31.933Z,1005.48
2016-06-11T10:00:31.983Z,1005.47
2016-06-11T10:01:32.018Z,1005.49
2016-06-11T10:02:32.068Z,1005.46
2016-06-11T10:03:32.087Z,1005.44
2016-06-11T10:04:32.137Z,1005.44
2016-06-11T10:05:32.172Z,1005.45
2016-06-11T10:06:32.205Z,1005.47
2016-06-11T10:07:32.240Z,1005.47
2016-06-11T10:08:32.289Z,1005.46
2016-06-11T10:09:32.325Z,1005.47
2016-06-11T10:10:32.359Z,1005.48
2016-06-11T10:11:32.392Z,1005.5
2016-06-11T10:12:32.442Z,1005.51
2016-06-11T10:13:32.476Z,1005.48
2016-06-11T10:14:32.512Z,1005.5
2016-06-11T10:15:32.561Z,1005.54
2016-06-11T10:16:33.564Z,1005.53
2016-06-11T10:17:32.646Z,1005.51
2016-06-11T10:18:32.680Z,1005.5
2016-06-11T10:19:32.715Z,1005.55
2016-06-11T10:20:32.764Z,1005.48
2016-06-11T10:21:32.783Z,1005.55
2016-06-11T10:22:32.832Z,1005.51
2016-06-11T10:23:32.867Z,1005.51
2016-06-11T10:24:32.901Z,1005.46
2016-06-11T10:25:32.935Z,1005.48
2016-06-11T10:26:32.986Z,1005.5
2016-06-11T10:27:33.019Z,1005.49
2016-06-11T10:28:33.070Z,1005.5
2016-06-11T10:29:33.103Z,1005.52
2016-06-11T10:30:33.139Z,1005.56
2016-06-11T10:31:33.173Z,1005.58
2016-06-11T10:32:33.223Z,1005.52
2016-06-11T10:33:33.258Z,1005.54
2016-06-11T10:34:33.291Z,1005.54
2016-06-11T10:35:33.326Z,1005.57
2016-06-11T10:36:33.376Z,1005.58
2016-06-11T10:37:33.410Z,1005.57
2016-06-11T10:38:33.460Z,1005.57
2016-06-11T10:39:33.495Z,1005.57
2016-06-11T10:40:33.528Z,1005.56
2016-06-11T10:41:33.579Z,1005.56
2016-06-11T10:42:33.612Z,1005.53
2016-06-11T10:43:33.647Z,1005.55
2016-06-11T10:44:33.697Z,1005.55
2016-06-11T10:45:33.732Z,1005.53
2016-06-11T10:46:33.766Z,1005.52
2016-06-11T10:47:33.800Z,1005.5
2016-06-11T10:48:33.851Z,1005.52
2016-06-11T10:49:33.900Z,1005.52
2016-06-11T10:50:33.935Z,1005.5
2016-06-11T10:51:33.968Z,1005.57
2016-06-11T10:52:34.004Z,1005.55
2016-06-11T10:53:34.052Z,1005.53
2016-06-11T10:58:06.815Z,1005.5
2016-06-11T10:59:06.865Z,1005.5
2016-06-11T11:00:06.900Z,1005.49
2016-06-11T11:01:06.949Z,1005.5
2016-06-11T11:02:06.984Z,1005.51
2016-06-11T11:03:07.019Z,1005.51
2016-06-11T11:04:07.068Z,1005.49
2016-06-11T11:05:07.102Z,1005.52
2016-06-11T11:06:07.137Z,1005.47
2016-06-11T11:07:07.186Z,1005.43
2016-06-11T11:08:07.237Z,1005.46
2016-06-11T11:09:07.271Z,1005.45
2016-06-11T11:10:07.306Z,1005.48
2016-06-11T11:11:07.354Z,1005.49
2016-06-11T11:12:07.405Z,1005.48
2016-06-11T11:13:07.440Z,1005.47
2016-06-11T11:14:07.474Z,1005.43
2016-06-11T11:15:07.524Z,1005.42
2016-06-11T11:16:07.574Z,1005.45
2016-06-11T11:17:07.609Z,1005.42
2016-06-11T11:18:07.642Z,1005.38
2016-06-11T11:19:07.709Z,1005.38
2016-06-11T11:20:07.743Z,1005.41
2016-06-11T11:21:07.793Z,1005.38
2016-06-11T11:22:07.827Z,1005.39
2016-06-11T11:23:07.861Z,1005.4
2016-06-11T11:24:07.911Z,1005.38
2016-06-11T11:25:07.945Z,1005.39
2016-06-11T11:26:07.995Z,1005.35
2016-06-11T11:27:08.029Z,1005.36
2016-06-11T11:28:08.079Z,1005.33
2016-06-11T11:29:08.129Z,1005.36
2016-06-11T11:30:08.164Z,1005.36
2016-06-11T11:31:08.214Z,1005.32
2016-06-11T11:32:08.342Z,1005.33
2016-06-11T11:33:08.298Z,1005.32
2016-06-11T11:34:08.348Z,1005.35
2016-06-11T11:35:08.382Z,1005.32
2016-06-11T11:36:08.417Z,1005.32
2016-06-11T11:37:08.467Z,1005.31
2016-06-11T11:38:08.516Z,1005.29
2016-06-11T11:39:08.551Z,1005.32
2016-06-11T11:40:08.602Z,1005.27
2016-06-11T11:41:08.635Z,1005.32
2016-06-11T11:42:08.685Z,1005.3
2016-06-11T11:43:08.720Z,1005.27
2016-06-11T11:44:08.769Z,1005.3
2016-06-11T11:45:08.819Z,1005.23
2016-06-11T11:46:08.854Z,1005.24
2016-06-11T11:47:08.887Z,1005.26
2016-06-11T11:48:08.938Z,1005.21
2016-06-11T11:49:08.972Z,1005.24
2016-06-11T11:50:09.021Z,1005.23
2016-06-11T11:51:09.057Z,1005.16
2016-06-11T11:52:09.106Z,1005.18
2016-06-11T11:53:09.141Z,1005.16
2016-06-11T11:54:09.191Z,1005.2
2016-06-11T11:55:09.240Z,1005.17
2016-06-11T11:56:09.275Z,1005.12
2016-06-11T11:57:09.325Z,1005.13
2016-06-11T11:58:09.359Z,1005.11
2016-06-11T11:59:09.409Z,1005.14
2016-06-11T12:00:09.444Z,1005.11
2016-06-11T12:01:09.494Z,1005.11
2016-06-11T12:02:10.341Z,1005.09
2016-06-11T12:03:09.562Z,1005.09
2016-06-11T12:04:09.612Z,1005.09
2016-06-11T12:05:09.661Z,1005.1
2016-06-11T12:06:09.696Z,1005.08
2016-06-11T12:07:09.746Z,1005.03
2016-06-11T12:08:09.780Z,1005.08
2016-06-11T12:09:09.830Z,1005.11
2016-06-11T12:10:09.866Z,1005.05
2016-06-11T12:11:09.914Z,1005.05
2016-06-11T12:12:09.949Z,1005.05